Time;durP1;ratioP1;P1;durP2;ratioP2;P2;SDS_P1;SDS_P2;PMS_P1;PMS_P2;Temp;Humidity;BMP_temperature;BMP_pressure;BME280_temperature;BME280_humidity;BME280_pressure;Samples;Min_cycle;Max_cycle;Signal;HPM_P1;HPM_P2
2021/03/18 00:00:43;;;;;;;12.07;2.13;;;;;;;;;;6097299;23;20008;-56
2021/03/18 00:03:09;;;;;;;;;;;;;;;;;;6097882;23;20022;-56
2021/03/18 00:05:36;;;;;;;7.13;1.57;;;;;;;;;;6097285;23;19928;-56
2021/03/18 00:08:03;;;;;;;7.73;2.77;;;;;;;;;;6097318;23;20010;-56
2021/03/18 00:10:30;;;;;;;6.20;1.80;;;;;;;;;;6097200;23;20002;-56
2021/03/18 00:12:56;;;;;;;9.47;2.53;;;;;;;;;;6097154;23;20061;-56
2021/03/18 00:15:23;;;;;;;8.53;1.90;;;;;;;;;;6097165;23;20010;-56
2021/03/18 00:17:50;;;;;;;6.77;1.87;;;;;;;;;;6097077;23;20010;-56
2021/03/18 00:20:19;;;;;;;9.53;1.83;;;;;;;;;;6097098;23;19998;-56
2021/03/18 00:22:47;;;;;;;12.97;3.40;;;;;;;;;;6097076;23;20312;-56
2021/03/18 00:25:14;;;;;;;5.37;2.17;;;;;;;;;;6096949;23;20006;-56
2021/03/18 00:27:43;;;;;;;7.43;2.00;;;;;;;;;;6097069;23;20003;-56
2021/03/18 00:30:11;;;;;;;5.70;2.40;;;;;;;;;;6100350;23;20014;-56
2021/03/18 00:32:38;;;;;;;9.30;2.30;;;;;;;;;;6097033;23;20006;-55
2021/03/18 00:35:06;;;;;;;8.50;2.47;;;;;;;;;;6097076;23;20374;-55
2021/03/18 00:37:34;;;;;;;5.33;1.57;;;;;;;;;;6096957;23;20049;-56
2021/03/18 00:40:00;;;;;;;12.57;2.53;;;;;;;;;;6096922;23;20002;-56
2021/03/18 00:42:27;;;;;;;7.67;2.63;;;;;;;;;;6096874;23;20006;-56
2021/03/18 00:44:54;;;;;;;14.93;2.53;;;;;;;;;;6097021;23;19998;-56
2021/03/18 00:47:21;;;;;;;7.80;2.20;;;;;;;;;;6097244;23;20065;-56
2021/03/18 00:49:47;;;;;;;21.53;2.80;;;;;;;;;;6096801;23;20014;-56
2021/03/18 00:52:14;;;;;;;10.37;2.50;;;;;;;;;;6096874;23;20006;-56
2021/03/18 00:54:41;;;;;;;6.93;2.03;;;;;;;;;;6096889;23;20030;-56
2021/03/18 00:57:08;;;;;;;7.63;2.47;;;;;;;;;;6096811;23;20014;-56
2021/03/18 00:59:34;;;;;;;3.87;2.10;;;;;;;;;;6096756;23;20005;-56
2021/03/18 01:02:01;;;;;;;9.50;2.13;;;;;;;;;;6096905;23;20010;-55
2021/03/18 01:04:28;;;;;;;8.60;2.50;;;;;;;;;;6096900;23;19999;-56
2021/03/18 01:06:55;;;;;;;7.97;2.47;;;;;;;;;;6096816;23;20445;-55
2021/03/18 01:09:22;;;;;;;5.93;1.90;;;;;;;;;;6096767;23;20421;-56
2021/03/18 01:11:48;;;;;;;5.90;2.20;;;;;;;;;;6096877;23;20330;-56
2021/03/18 01:14:15;;;;;;;14.33;2.60;;;;;;;;;;6096809;23;20037;-56
2021/03/18 01:16:49;;;;;;;8.93;2.17;;;;;;;;;;6096643;23;20074;-56
2021/03/18 01:19:18;;;;;;;10.02;2.20;;;;;;;;;;6096712;23;20006;-55
2021/03/18 01:21:50;;;;;;;9.33;2.60;;;;;;;;;;6096693;23;20381;-55
2021/03/18 01:24:16;;;;;;;11.13;2.10;;;;;;;;;;6096793;23;20384;-56
2021/03/18 01:26:44;;;;;;;9.67;2.83;;;;;;;;;;6097073;23;20018;-55
2021/03/18 01:29:12;;;;;;;10.23;2.20;;;;;;;;;;6096588;23;20006;-56
2021/03/18 01:31:39;;;;;;;7.50;2.40;;;;;;;;;;6100213;23;20022;-56
2021/03/18 01:34:06;;;;;;;12.33;2.27;;;;;;;;;;6096767;23;20378;-56
2021/03/18 01:36:34;;;;;;;6.13;2.57;;;;;;;;;;6096592;23;20349;-55
2021/03/18 01:39:01;;;;;;;4.43;2.47;;;;;;;;;;6098014;23;20003;-55
2021/03/18 01:41:28;;;;;;;5.93;2.60;;;;;;;;;;6098718;23;20006;-56
2021/03/18 01:43:55;;;;;;;5.93;2.30;;;;;;;;;;6098616;23;20378;-55
2021/03/18 01:46:22;;;;;;;13.10;3.53;;;;;;;;;;6098967;23;20006;-56
2021/03/18 01:48:49;;;;;;;9.33;2.53;;;;;;;;;;6098539;23;20445;-55
2021/03/18 01:51:17;;;;;;;8.43;2.87;;;;;;;;;;6098638;23;20006;-55
2021/03/18 01:53:43;;;;;;;11.40;2.53;;;;;;;;;;6098668;23;20010;-56
2021/03/18 01:56:12;;;;;;;9.10;2.60;;;;;;;;;;6098468;23;20094;-55
2021/03/18 01:58:41;;;;;;;11.60;2.87;;;;;;;;;;6098551;23;20010;-56
2021/03/18 02:01:09;;;;;;;7.47;2.53;;;;;;;;;;6098470;23;20006;-55
2021/03/18 02:03:36;;;;;;;8.63;2.30;;;;;;;;;;6098389;23;20081;-55
2021/03/18 02:06:04;;;;;;;4.40;1.87;;;;;;;;;;6098524;23;20014;-55
2021/03/18 02:08:30;;;;;;;6.90;2.10;;;;;;;;;;6098325;23;20123;-55
2021/03/18 02:10:57;;;;;;;9.60;2.13;;;;;;;;;;6098474;23;20007;-55
2021/03/18 02:13:24;;;;;;;6.13;2.20;;;;;;;;;;6098418;23;20013;-55
2021/03/18 02:15:56;;;;;;;6.33;2.27;;;;;;;;;;6098345;23;20002;-55
2021/03/18 02:18:42;;;;;;;8.33;2.00;;;;;;;;;;6098276;23;20014;-55
2021/03/18 02:21:12;;;;;;;6.17;2.00;;;;;;;;;;6098269;23;20017;-55
2021/03/18 02:23:38;;;;;;;8.70;2.17;;;;;;;;;;6098283;23;19999;-55
2021/03/18 02:26:30;;;;;;;6.47;1.83;;;;;;;;;;6098331;23;20070;-55
2021/03/18 02:29:12;;;;;;;6.23;2.00;;;;;;;;;;6098076;23;20029;-55
2021/03/18 02:31:50;;;;;;;5.73;1.93;;;;;;;;;;6101658;23;20018;-55
2021/03/18 02:34:29;;;;;;;3.93;1.90;;;;;;;;;;6098151;23;20006;-55
2021/03/18 02:37:00;;;;;;;7.47;2.87;;;;;;;;;;6098043;23;20014;-55
2021/03/18 02:39:32;;;;;;;6.03;2.33;;;;;;;;;;6098414;23;19999;-55
2021/03/18 02:42:04;;;;;;;14.20;2.90;;;;;;;;;;6098148;23;20006;-55
2021/03/18 02:44:33;;;;;;;7.70;3.00;;;;;;;;;;6098039;23;20003;-55
2021/03/18 02:47:12;;;;;;;13.10;2.50;;;;;;;;;;6098167;23;20367;-55
2021/03/18 02:49:46;;;;;;;9.20;2.63;;;;;;;;;;6097741;23;20302;-55
2021/03/18 02:52:14;;;;;;;12.68;2.92;;;;;;;;;;6098084;23;20329;-55
2021/03/18 02:54:42;;;;;;;7.63;3.20;;;;;;;;;;6097968;23;20009;-55
2021/03/18 02:57:10;;;;;;;8.20;2.50;;;;;;;;;;6097979;23;20014;-55
2021/03/18 02:59:39;;;;;;;10.63;2.30;;;;;;;;;;6097924;23;20026;-55
2021/03/18 03:02:16;;;;;;;7.50;2.60;;;;;;;;;;6098084;23;20453;-55
2021/03/18 03:04:43;;;;;;;7.67;2.67;;;;;;;;;;6097899;23;20430;-55
2021/03/18 03:07:11;;;;;;;5.50;2.30;;;;;;;;;;6097860;23;20006;-55
2021/03/18 03:09:38;;;;;;;6.70;3.20;;;;;;;;;;6097737;23;20003;-55
2021/03/18 03:12:06;;;;;;;8.43;2.43;;;;;;;;;;6097734;23;20011;-55
2021/03/18 03:14:33;;;;;;;4.23;2.27;;;;;;;;;;6097710;23;20438;-55
2021/03/18 03:17:01;;;;;;;11.07;2.33;;;;;;;;;;6097564;23;20014;-55
2021/03/18 03:19:34;;;;;;;7.83;2.53;;;;;;;;;;6097766;23;20011;-55
2021/03/18 03:22:01;;;;;;;9.67;2.37;;;;;;;;;;6097732;23;20017;-55
2021/03/18 03:24:29;;;;;;;5.60;2.13;;;;;;;;;;6097687;23;20182;-55
2021/03/18 03:26:56;;;;;;;7.17;1.93;;;;;;;;;;6097696;23;20006;-55
2021/03/18 03:29:23;;;;;;;9.10;2.87;;;;;;;;;;6097860;23;20002;-55
2021/03/18 03:31:50;;;;;;;9.27;2.50;;;;;;;;;;6101058;23;20077;-55
2021/03/18 03:34:18;;;;;;;7.23;2.33;;;;;;;;;;6097679;23;20003;-55
2021/03/18 03:36:46;;;;;;;6.23;2.37;;;;;;;;;;6097504;23;20014;-55
2021/03/18 03:39:13;;;;;;;7.50;2.47;;;;;;;;;;6097591;23;20011;-55
2021/03/18 03:41:40;;;;;;;6.37;2.00;;;;;;;;;;6097623;23;20002;-55
2021/03/18 03:44:07;;;;;;;9.43;2.20;;;;;;;;;;6097417;23;20025;-55
2021/03/18 03:46:35;;;;;;;8.50;2.27;;;;;;;;;;6097420;23;20007;-55
2021/03/18 03:49:02;;;;;;;8.83;3.10;;;;;;;;;;6097290;23;20006;-55
2021/03/18 03:51:33;;;;;;;10.23;2.20;;;;;;;;;;6097427;23;20026;-55
2021/03/18 03:54:01;;;;;;;4.70;1.63;;;;;;;;;;6097404;23;20007;-55
2021/03/18 03:56:35;;;;;;;8.60;2.20;;;;;;;;;;6097221;23;20011;-55
2021/03/18 03:59:06;;;;;;;6.37;2.20;;;;;;;;;;6097323;23;20064;-55
2021/03/18 04:01:36;;;;;;;12.03;2.67;;;;;;;;;;6097008;23;20007;-55
2021/03/18 04:04:26;;;;;;;6.80;2.10;;;;;;;;;;6097626;23;20334;-55
2021/03/18 04:06:55;;;;;;;7.50;2.47;;;;;;;;;;6082555;23;20502;-55
2021/03/18 04:09:29;;;;;;;7.20;2.53;;;;;;;;;;6097217;23;20412;-55
2021/03/18 04:12:04;;;;;;;4.97;2.37;;;;;;;;;;6097208;23;20461;-55
2021/03/18 04:14:33;;;;;;;5.47;1.97;;;;;;;;;;6097100;23;20040;-55
2021/03/18 04:17:04;;;;;;;15.03;2.00;;;;;;;;;;6097031;23;20014;-55
2021/03/18 04:19:31;;;;;;;6.23;2.10;;;;;;;;;;6097146;23;20030;-55
2021/03/18 04:21:58;;;;;;;6.43;2.27;;;;;;;;;;6097088;23;20007;-55
2021/03/18 04:24:25;;;;;;;7.30;2.10;;;;;;;;;;6097053;23;20006;-55
2021/03/18 04:26:53;;;;;;;7.83;2.77;;;;;;;;;;6097132;23;20014;-55
2021/03/18 04:29:21;;;;;;;4.03;1.90;;;;;;;;;;6096985;23;20025;-55
2021/03/18 04:31:48;;;;;;;13.13;2.87;;;;;;;;;;6100502;23;20022;-55
2021/03/18 04:34:16;;;;;;;7.90;2.40;;;;;;;;;;6096913;23;20330;-55
2021/03/18 04:36:44;;;;;;;9.83;2.37;;;;;;;;;;6096953;23;20022;-55
2021/03/18 04:39:11;;;;;;;3.27;1.83;;;;;;;;;;6096865;23;20061;-55
2021/03/18 04:41:38;;;;;;;4.33;1.50;;;;;;;;;;6097003;23;20007;-54
2021/03/18 04:44:06;;;;;;;3.37;1.50;;;;;;;;;;6096981;23;20002;-55
2021/03/18 04:46:33;;;;;;;7.43;2.30;;;;;;;;;;6096936;23;20028;-55
2021/03/18 04:49:02;;;;;;;10.57;2.00;;;;;;;;;;6096841;23;20068;-55
2021/03/18 04:51:29;;;;;;;7.20;2.03;;;;;;;;;;6097015;23;20077;-54
2021/03/18 04:54:00;;;;;;;8.43;2.23;;;;;;;;;;6096920;23;20379;-55
2021/03/18 04:56:27;;;;;;;6.40;2.50;;;;;;;;;;6096853;23;20002;-54
2021/03/18 04:58:54;;;;;;;9.37;2.50;;;;;;;;;;6096760;23;20006;-55
2021/03/18 05:01:23;;;;;;;5.97;2.27;;;;;;;;;;6096877;23;20330;-55
2021/03/18 05:03:50;;;;;;;7.87;2.50;;;;;;;;;;6097174;23;20006;-55
2021/03/18 05:06:17;;;;;;;5.17;1.93;;;;;;;;;;6097252;23;20325;-54
2021/03/18 05:08:44;;;;;;;9.50;3.83;;;;;;;;;;6096729;23;20006;-54
2021/03/18 05:11:11;;;;;;;6.90;2.20;;;;;;;;;;6096719;23;20006;-55
2021/03/18 05:13:39;;;;;;;5.37;2.57;;;;;;;;;;6096779;23;20022;-55
2021/03/18 05:16:06;;;;;;;12.07;3.20;;;;;;;;;;6096791;23;20002;-55
2021/03/18 05:18:33;;;;;;;8.23;2.50;;;;;;;;;;6096693;23;20013;-55
2021/03/18 05:21:03;;;;;;;7.97;2.70;;;;;;;;;;6095265;23;20010;-55
2021/03/18 05:23:30;;;;;;;7.90;2.50;;;;;;;;;;6096721;23;20033;-55
2021/03/18 05:25:57;;;;;;;11.27;2.60;;;;;;;;;;6096679;23;20077;-55
2021/03/18 05:28:24;;;;;;;11.57;2.37;;;;;;;;;;6096439;23;20014;-55
2021/03/18 05:30:51;;;;;;;7.73;2.40;;;;;;;;;;6100116;23;20018;-55
2021/03/18 05:33:18;;;;;;;4.13;1.80;;;;;;;;;;6097129;23;20006;-54
2021/03/18 05:35:45;;;;;;;5.97;1.83;;;;;;;;;;6096659;23;19998;-55
2021/03/18 05:38:13;;;;;;;6.20;1.87;;;;;;;;;;6096715;23;20453;-55
2021/03/18 05:40:40;;;;;;;5.20;2.70;;;;;;;;;;6096537;23;20312;-55
2021/03/18 05:43:07;;;;;;;4.97;2.13;;;;;;;;;;6096758;23;20002;-55
2021/03/18 05:45:34;;;;;;;13.83;2.93;;;;;;;;;;6096692;23;20007;-55
2021/03/18 05:48:01;;;;;;;8.90;2.23;;;;;;;;;;6096611;23;20002;-55
2021/03/18 05:50:28;;;;;;;5.07;2.33;;;;;;;;;;6096589;23;20007;-55
2021/03/18 05:52:55;;;;;;;5.50;2.10;;;;;;;;;;6096635;23;20070;-55
2021/03/18 05:55:22;;;;;;;7.07;2.50;;;;;;;;;;6096554;23;20010;-54
2021/03/18 05:57:50;;;;;;;3.70;1.97;;;;;;;;;;6096590;23;20441;-55
2021/03/18 06:00:17;;;;;;;9.23;2.33;;;;;;;;;;6096927;23;20006;-54
2021/03/18 06:02:44;;;;;;;6.03;1.90;;;;;;;;;;6096675;23;20013;-55
2021/03/18 06:05:12;;;;;;;4.43;2.20;;;;;;;;;;6096704;23;20078;-55
2021/03/18 06:07:40;;;;;;;5.97;2.60;;;;;;;;;;6096511;23;20033;-54
2021/03/18 06:10:08;;;;;;;5.30;2.00;;;;;;;;;;6096602;23;20078;-55
2021/03/18 06:12:38;;;;;;;4.90;2.23;;;;;;;;;;6096640;23;20013;-54
2021/03/18 06:15:13;;;;;;;6.70;2.50;;;;;;;;;;6096853;23;20006;-55
2021/03/18 06:17:40;;;;;;;7.00;2.38;;;;;;;;;;6096451;23;20010;-55
2021/03/18 06:20:07;;;;;;;5.37;2.47;;;;;;;;;;6096644;23;19998;-55
2021/03/18 06:22:39;;;;;;;6.33;3.30;;;;;;;;;;6096508;23;20338;-55
2021/03/18 06:25:07;;;;;;;11.33;3.37;;;;;;;;;;6098011;23;20160;-55
2021/03/18 06:27:34;;;;;;;6.53;2.70;;;;;;;;;;6098098;23;20011;-55
2021/03/18 06:30:09;;;;;;;12.60;3.80;;;;;;;;;;6098315;23;20003;-55
2021/03/18 06:32:36;;;;;;;4.77;2.47;;;;;;;;;;6098286;23;20018;-55
2021/03/18 06:35:03;;;;;;;7.03;2.70;;;;;;;;;;6098190;23;20014;-55
2021/03/18 06:37:43;;;;;;;5.93;2.60;;;;;;;;;;6097965;23;20042;-55
2021/03/18 06:40:10;;;;;;;5.63;2.67;;;;;;;;;;6098051;23;20013;-55
2021/03/18 06:43:12;;;;;;;6.97;3.43;;;;;;;;;;6098252;23;20038;-55
2021/03/18 06:45:40;;;;;;;4.43;2.50;;;;;;;;;;5981310;24;20028;-55
2021/03/18 06:48:08;;;;;;;7.50;2.70;;;;;;;;;;6076246;23;20013;-55
2021/03/18 06:50:36;;;;;;;6.60;2.60;;;;;;;;;;6098070;23;20338;-55
2021/03/18 06:53:16;;;;;;;9.40;2.40;;;;;;;;;;6098101;23;20007;-55
2021/03/18 06:55:43;;;;;;;10.13;3.20;;;;;;;;;;6098077;23;20426;-55
2021/03/18 06:58:29;;;;;;;6.47;3.03;;;;;;;;;;6097932;23;20014;-55
2021/03/18 07:00:57;;;;;;;3.57;2.57;;;;;;;;;;6098019;23;20013;-55
2021/03/18 07:03:44;;;;;;;6.93;3.20;;;;;;;;;;6098020;23;20017;-55
2021/03/18 07:06:25;;;;;;;6.07;2.47;;;;;;;;;;6097960;23;20330;-55
2021/03/18 07:09:00;;;;;;;10.77;2.67;;;;;;;;;;6097798;23;20012;-55
2021/03/18 07:11:27;;;;;;;6.33;2.83;;;;;;;;;;6097891;23;20030;-55
2021/03/18 07:13:54;;;;;;;6.77;2.80;;;;;;;;;;6097870;23;20002;-55
2021/03/18 07:16:21;;;;;;;8.73;3.07;;;;;;;;;;6097611;23;20006;-55
2021/03/18 07:18:57;;;;;;;9.87;2.87;;;;;;;;;;6097710;23;20011;-55
2021/03/18 07:21:37;;;;;;;7.30;3.07;;;;;;;;;;6097686;23;20382;-55
2021/03/18 07:24:04;;;;;;;5.83;2.50;;;;;;;;;;6097683;23;20021;-55
2021/03/18 07:26:38;;;;;;;6.27;2.90;;;;;;;;;;6097660;23;20009;-55
2021/03/18 07:29:21;;;;;;;9.77;3.50;;;;;;;;;;6097478;23;20007;-55
2021/03/18 07:31:49;;;;;;;6.97;2.87;;;;;;;;;;6101031;23;20038;-55
2021/03/18 07:34:16;;;;;;;7.23;3.80;;;;;;;;;;6097561;23;20085;-55
2021/03/18 07:36:43;;;;;;;7.13;2.60;;;;;;;;;;6097503;23;20015;-55
2021/03/18 07:39:10;;;;;;;9.87;3.10;;;;;;;;;;6097431;23;20077;-55
2021/03/18 07:41:38;;;;;;;5.70;2.77;;;;;;;;;;6097429;23;20002;-55
2021/03/18 07:44:05;;;;;;;6.27;2.90;;;;;;;;;;6097614;23;20387;-55
2021/03/18 07:46:35;;;;;;;5.77;2.73;;;;;;;;;;6097537;23;20454;-55
2021/03/18 07:49:14;;;;;;;6.40;2.70;;;;;;;;;;6097417;23;20009;-55
2021/03/18 07:51:42;;;;;;;7.33;2.37;;;;;;;;;;6097498;23;20006;-55
2021/03/18 07:54:12;;;;;;;5.90;2.90;;;;;;;;;;6097313;23;19999;-55
2021/03/18 07:56:44;;;;;;;7.80;2.80;;;;;;;;;;6097121;23;20026;-55
2021/03/18 07:59:11;;;;;;;9.40;2.70;;;;;;;;;;6097216;23;20006;-55
2021/03/18 08:01:39;;;;;;;3.50;2.33;;;;;;;;;;6097256;23;20045;-55
2021/03/18 08:04:07;;;;;;;5.73;2.40;;;;;;;;;;6097283;23;20010;-55
2021/03/18 08:06:40;;;;;;;4.90;2.20;;;;;;;;;;6097364;23;20438;-55
2021/03/18 08:09:07;;;;;;;5.07;2.50;;;;;;;;;;6097337;23;20002;-55
2021/03/18 08:11:35;;;;;;;4.03;2.50;;;;;;;;;;6097252;23;20388;-55
2021/03/18 08:14:08;;;;;;;6.17;2.37;;;;;;;;;;6097313;23;20002;-55
2021/03/18 08:16:35;;;;;;;6.23;2.70;;;;;;;;;;6097031;23;20007;-55
2021/03/18 08:19:04;;;;;;;4.13;2.30;;;;;;;;;;6097192;23;20010;-55
2021/03/18 08:21:40;;;;;;;10.70;2.30;;;;;;;;;;6071837;23;20442;-55
2021/03/18 08:24:09;;;;;;;4.20;2.20;;;;;;;;;;6097119;23;20464;-55
2021/03/18 08:26:44;;;;;;;5.87;2.13;;;;;;;;;;6097127;23;20002;-55
2021/03/18 08:29:12;;;;;;;7.18;2.75;;;;;;;;;;6097384;23;20006;-55
2021/03/18 08:31:45;;;;;;;5.13;2.37;;;;;;;;;;6100396;23;20022;-55
2021/03/18 08:34:11;;;;;;;5.47;2.57;;;;;;;;;;6097099;23;20009;-55
2021/03/18 08:36:39;;;;;;;3.33;1.73;;;;;;;;;;6096935;23;20038;-55
2021/03/18 08:39:06;;;;;;;5.47;2.17;;;;;;;;;;6097246;23;20002;-55
2021/03/18 08:41:37;;;;;;;5.83;2.57;;;;;;;;;;6096960;23;20252;-55
2021/03/18 08:44:14;;;;;;;3.60;2.23;;;;;;;;;;6095461;23;20007;-55
2021/03/18 08:46:44;;;;;;;4.33;2.00;;;;;;;;;;6096723;23;20010;-55
2021/03/18 08:49:46;;;;;;;4.87;2.07;;;;;;;;;;6096866;23;20006;-55
2021/03/18 08:52:15;;;;;;;3.93;2.20;;;;;;;;;;5980422;24;20063;-55
2021/03/18 08:54:49;;;;;;;7.40;2.50;;;;;;;;;;6076498;23;20330;-55
2021/03/18 08:57:21;;;;;;;9.80;2.57;;;;;;;;;;6096738;23;20010;-55
2021/03/18 08:59:53;;;;;;;5.77;2.50;;;;;;;;;;6096952;23;20033;-55
2021/03/18 09:02:21;;;;;;;6.37;2.20;;;;;;;;;;6096886;23;20206;-55
2021/03/18 09:04:49;;;;;;;5.33;2.20;;;;;;;;;;6096742;23;20253;-55
2021/03/18 09:07:19;;;;;;;7.43;2.30;;;;;;;;;;6096674;23;20212;-55
2021/03/18 09:09:46;;;;;;;4.70;2.40;;;;;;;;;;6096835;23;20240;-55
2021/03/18 09:12:13;;;;;;;4.87;2.70;;;;;;;;;;6096864;23;20373;-55
2021/03/18 09:14:40;;;;;;;6.63;2.17;;;;;;;;;;6096868;23;20240;-55
2021/03/18 09:17:12;;;;;;;6.20;2.20;;;;;;;;;;6096798;23;20010;-55
2021/03/18 09:19:44;;;;;;;5.80;2.43;;;;;;;;;;6096839;23;20217;-55
2021/03/18 09:22:14;;;;;;;5.00;2.00;;;;;;;;;;6096895;23;20687;-55
2021/03/18 09:24:41;;;;;;;6.63;2.93;;;;;;;;;;6096819;23;20221;-55
2021/03/18 09:27:10;;;;;;;4.53;2.53;;;;;;;;;;6096734;23;20260;-55
2021/03/18 09:29:37;;;;;;;7.83;2.53;;;;;;;;;;6096608;23;20225;-55
2021/03/18 09:32:04;;;;;;;17.33;2.10;;;;;;;;;;6100226;23;20255;-55
2021/03/18 09:34:32;;;;;;;5.80;2.37;;;;;;;;;;6096674;23;20253;-55
2021/03/18 09:36:59;;;;;;;7.13;3.00;;;;;;;;;;6096579;23;20252;-55
2021/03/18 09:39:26;;;;;;;4.97;2.53;;;;;;;;;;6096599;23;20604;-55
2021/03/18 09:41:56;;;;;;;6.50;2.77;;;;;;;;;;6096697;23;20201;-55
2021/03/18 09:44:26;;;;;;;6.07;3.23;;;;;;;;;;6096777;23;20217;-55
2021/03/18 09:47:03;;;;;;;5.53;2.50;;;;;;;;;;6096680;23;20538;-55
2021/03/18 09:49:33;;;;;;;6.90;2.37;;;;;;;;;;6096569;23;20216;-55
2021/03/18 09:52:01;;;;;;;5.53;2.00;;;;;;;;;;6096628;23;20221;-55
2021/03/18 09:54:29;;;;;;;7.47;2.40;;;;;;;;;;6096561;23;20223;-55
2021/03/18 09:57:00;;;;;;;5.37;2.40;;;;;;;;;;6096800;23;20340;-55
2021/03/18 09:59:27;;;;;;;7.27;2.30;;;;;;;;;;6097513;23;20227;-55
2021/03/18 10:01:54;;;;;;;4.30;2.43;;;;;;;;;;6098598;23;20244;-55
2021/03/18 10:04:21;;;;;;;5.30;3.00;;;;;;;;;;6098638;23;20292;-55
2021/03/18 10:06:51;;;;;;;3.67;2.20;;;;;;;;;;6098412;23;20225;-55
2021/03/18 10:09:18;;;;;;;7.30;2.93;;;;;;;;;;6098320;23;20561;-54
2021/03/18 10:11:49;;;;;;;5.03;2.47;;;;;;;;;;6098313;23;20313;-55
2021/03/18 10:14:17;;;;;;;8.40;2.73;;;;;;;;;;6098370;23;20259;-55
2021/03/18 10:16:46;;;;;;;10.77;2.90;;;;;;;;;;6098403;23;20549;-55
2021/03/18 10:19:13;;;;;;;5.57;3.07;;;;;;;;;;6098308;23;20229;-55
2021/03/18 10:21:40;;;;;;;6.13;2.90;;;;;;;;;;6098361;23;20676;-55
2021/03/18 10:24:11;;;;;;;5.03;2.57;;;;;;;;;;6098277;23;20824;-55
2021/03/18 10:26:38;;;;;;;8.33;3.23;;;;;;;;;;6098281;23;20223;-55
2021/03/18 10:29:06;;;;;;;8.60;2.60;;;;;;;;;;6098044;23;20231;-55
2021/03/18 10:31:34;;;;;;;8.23;2.53;;;;;;;;;;6101585;23;20248;-55
2021/03/18 10:34:00;;;;;;;5.23;2.60;;;;;;;;;;6098297;23;20241;-55
2021/03/18 10:36:37;;;;;;;6.30;2.87;;;;;;;;;;6098104;23;20577;-55
2021/03/18 10:39:07;;;;;;;4.47;2.70;;;;;;;;;;6098178;23;20257;-55
2021/03/18 10:41:33;;;;;;;5.47;2.40;;;;;;;;;;6098091;23;20248;-55
2021/03/18 10:44:00;;;;;;;9.60;2.87;;;;;;;;;;6098129;23;20217;-55
2021/03/18 10:46:33;;;;;;;6.30;2.73;;;;;;;;;;6097994;23;20596;-55
2021/03/18 10:49:00;;;;;;;8.83;2.47;;;;;;;;;;6097994;23;20224;-55
2021/03/18 10:51:27;;;;;;;5.90;3.23;;;;;;;;;;6097936;23;20213;-55
2021/03/18 10:53:55;;;;;;;6.00;2.93;;;;;;;;;;6098425;23;20581;-55
2021/03/18 10:56:26;;;;;;;4.20;2.80;;;;;;;;;;6098242;23;20552;-55
2021/03/18 10:58:54;;;;;;;8.83;2.77;;;;;;;;;;6097877;23;20229;-55
2021/03/18 11:01:25;;;;;;;6.13;3.13;;;;;;;;;;6097949;23;20206;-55
2021/03/18 11:04:01;;;;;;;6.00;2.60;;;;;;;;;;6097880;23;20221;-55
2021/03/18 11:06:28;;;;;;;6.37;3.13;;;;;;;;;;6098256;23;20212;-54
2021/03/18 11:08:56;;;;;;;5.97;2.47;;;;;;;;;;6097750;23;20522;-55
2021/03/18 11:11:26;;;;;;;5.30;2.80;;;;;;;;;;6097722;23;20219;-55
2021/03/18 11:14:04;;;;;;;5.60;2.80;;;;;;;;;;6097856;23;20585;-55
2021/03/18 11:16:31;;;;;;;5.50;2.83;;;;;;;;;;6098101;23;20241;-55
2021/03/18 11:19:02;;;;;;;4.30;2.80;;;;;;;;;;6098003;23;20236;-55
2021/03/18 11:21:30;;;;;;;7.07;3.10;;;;;;;;;;6097719;23;20221;-55
2021/03/18 11:24:07;;;;;;;5.73;3.40;;;;;;;;;;6097713;23;20628;-55
2021/03/18 11:26:34;;;;;;;5.90;2.97;;;;;;;;;;6097622;23;20221;-55
2021/03/18 11:29:10;;;;;;;5.87;2.80;;;;;;;;;;6097434;23;20520;-55
2021/03/18 11:31:38;;;;;;;5.07;3.10;;;;;;;;;;6101051;23;20280;-55
2021/03/18 11:34:19;;;;;;;5.30;2.60;;;;;;;;;;6097696;23;20225;-55
2021/03/18 11:36:49;;;;;;;6.10;2.80;;;;;;;;;;6097475;23;20580;-55
2021/03/18 11:39:17;;;;;;;4.33;2.57;;;;;;;;;;6097521;23;20235;-55
2021/03/18 11:41:44;;;;;;;5.83;3.17;;;;;;;;;;6097363;23;20553;-54
2021/03/18 11:44:11;;;;;;;7.53;3.60;;;;;;;;;;6097432;23;20221;-54
2021/03/18 11:46:38;;;;;;;8.57;3.00;;;;;;;;;;6097452;23;20232;-55
2021/03/18 11:49:05;;;;;;;6.53;3.60;;;;;;;;;;6097471;23;20217;-55
2021/03/18 11:51:31;;;;;;;7.17;3.10;;;;;;;;;;6097379;23;20233;-55
2021/03/18 11:53:58;;;;;;;6.80;3.43;;;;;;;;;;6097462;23;20215;-55
2021/03/18 11:56:25;;;;;;;8.90;4.03;;;;;;;;;;6097292;23;20295;-55
2021/03/18 11:58:52;;;;;;;15.00;3.87;;;;;;;;;;6097402;23;20223;-55
2021/03/18 12:01:19;;;;;;;10.10;3.97;;;;;;;;;;6097293;23;20208;-55
2021/03/18 12:03:46;;;;;;;4.80;2.70;;;;;;;;;;6097228;23;20231;-55
2021/03/18 12:06:13;;;;;;;6.00;2.87;;;;;;;;;;6097305;23;20581;-55
2021/03/18 12:08:40;;;;;;;7.03;3.10;;;;;;;;;;6097255;23;20217;-55
2021/03/18 12:11:07;;;;;;;6.73;3.23;;;;;;;;;;6097349;23;20208;-54
2021/03/18 12:13:34;;;;;;;7.53;3.30;;;;;;;;;;6097244;23;20292;-54
2021/03/18 12:16:01;;;;;;;5.47;3.33;;;;;;;;;;6097093;23;20648;-54
2021/03/18 12:18:28;;;;;;;6.00;2.70;;;;;;;;;;6097089;23;20237;-55
2021/03/18 12:20:55;;;;;;;10.53;3.30;;;;;;;;;;6097032;23;20219;-55
2021/03/18 12:23:22;;;;;;;11.43;3.67;;;;;;;;;;6096964;23;20571;-55
2021/03/18 12:25:49;;;;;;;10.73;4.17;;;;;;;;;;6097080;23;20212;-55
2021/03/18 12:28:16;;;;;;;14.63;4.20;;;;;;;;;;6097057;23;20218;-54
2021/03/18 12:30:46;;;;;;;5.80;3.03;;;;;;;;;;6097031;23;20228;-55
2021/03/18 12:33:13;;;;;;;5.77;3.07;;;;;;;;;;6097073;23;20253;-54
2021/03/18 12:35:40;;;;;;;8.00;3.43;;;;;;;;;;6097082;23;20532;-54
2021/03/18 12:38:07;;;;;;;10.73;3.57;;;;;;;;;;6096948;23;20340;-54
2021/03/18 12:40:34;;;;;;;4.80;2.77;;;;;;;;;;6096830;23;20526;-54
2021/03/18 12:43:00;;;;;;;7.87;3.30;;;;;;;;;;6097044;23;20223;-54
2021/03/18 12:45:31;;;;;;;13.30;3.50;;;;;;;;;;6097365;23;20217;-54
2021/03/18 12:47:58;;;;;;;7.83;4.00;;;;;;;;;;6096901;23;20217;-54
2021/03/18 12:50:25;;;;;;;11.07;4.20;;;;;;;;;;6096806;23;20225;-54
2021/03/18 12:52:52;;;;;;;8.23;3.83;;;;;;;;;;6096886;23;20677;-54
2021/03/18 12:55:20;;;;;;;11.47;3.90;;;;;;;;;;6096804;23;20221;-54
2021/03/18 12:57:47;;;;;;;17.33;4.20;;;;;;;;;;6096824;23;20660;-54
2021/03/18 13:00:26;;;;;;;16.73;4.20;;;;;;;;;;6096856;23;20218;-54
2021/03/18 13:02:53;;;;;;;16.73;4.07;;;;;;;;;;6096807;23;20268;-55
2021/03/18 13:05:20;;;;;;;11.67;3.43;;;;;;;;;;6097145;23;20229;-55
2021/03/18 13:07:48;;;;;;;9.10;3.50;;;;;;;;;;6096706;23;20216;-54
2021/03/18 13:10:16;;;;;;;9.07;4.03;;;;;;;;;;6096897;23;20224;-54
2021/03/18 13:12:42;;;;;;;8.50;3.60;;;;;;;;;;6096708;23;20268;-54
2021/03/18 13:15:10;;;;;;;10.97;4.07;;;;;;;;;;6096890;23;20251;-54
2021/03/18 13:17:38;;;;;;;11.03;4.20;;;;;;;;;;6096669;23;20253;-54
2021/03/18 13:20:05;;;;;;;12.50;4.30;;;;;;;;;;6096763;23;20213;-54
2021/03/18 13:22:32;;;;;;;8.30;4.13;;;;;;;;;;6096643;23;20240;-54
2021/03/18 13:24:59;;;;;;;7.27;4.00;;;;;;;;;;6096814;23;20503;-54
2021/03/18 13:27:25;;;;;;;11.17;4.37;;;;;;;;;;6096523;23;20217;-53
2021/03/18 13:29:52;;;;;;;14.93;4.87;;;;;;;;;;6096672;23;20213;-53
2021/03/18 13:32:19;;;;;;;11.03;5.07;;;;;;;;;;6100354;23;20253;-54
2021/03/18 13:34:46;;;;;;;37.77;7.60;;;;;;;;;;6098785;23;20541;-53
2021/03/18 13:37:13;;;;;;;10.80;4.70;;;;;;;;;;6098558;23;20276;-54
2021/03/18 13:39:39;;;;;;;13.17;5.40;;;;;;;;;;6098660;23;20307;-54
2021/03/18 13:42:06;;;;;;;17.90;4.47;;;;;;;;;;6098650;23;20205;-54
2021/03/18 13:44:34;;;;;;;14.40;4.43;;;;;;;;;;6098726;23;20249;-54
2021/03/18 13:47:00;;;;;;;15.13;4.17;;;;;;;;;;6098538;23;20217;-54
2021/03/18 13:49:27;;;;;;;18.47;6.20;;;;;;;;;;6098755;23;20711;-55
2021/03/18 13:51:54;;;;;;;24.00;8.77;;;;;;;;;;6098798;23;20292;-54
2021/03/18 13:54:24;;;;;;;27.23;8.13;;;;;;;;;;6098236;23;20323;-54
2021/03/18 13:56:52;;;;;;;19.63;7.63;;;;;;;;;;6098239;23;20245;-55
2021/03/18 13:59:19;;;;;;;20.27;6.50;;;;;;;;;;6098356;23;20307;-55
2021/03/18 14:01:46;;;;;;;23.63;8.27;;;;;;;;;;6098159;23;20212;-54
2021/03/18 14:04:13;;;;;;;17.33;6.50;;;;;;;;;;6096729;23;20786;-55
2021/03/18 14:06:40;;;;;;;14.53;6.43;;;;;;;;;;6098258;23;20002;-55
2021/03/18 14:09:07;;;;;;;16.93;7.20;;;;;;;;;;6098179;23;20082;-55
2021/03/18 14:11:34;;;;;;;15.43;6.37;;;;;;;;;;6098135;23;20109;-55
2021/03/18 14:14:01;;;;;;;21.10;6.43;;;;;;;;;;6098119;23;20010;-55
2021/03/18 14:16:28;;;;;;;17.93;8.00;;;;;;;;;;6098009;23;20007;-55
2021/03/18 14:18:55;;;;;;;15.43;5.60;;;;;;;;;;6097926;23;20028;-55
2021/03/18 14:21:22;;;;;;;17.93;5.50;;;;;;;;;;6098014;23;20007;-55
2021/03/18 14:23:49;;;;;;;8.53;4.70;;;;;;;;;;6097927;23;20011;-55
2021/03/18 14:26:16;;;;;;;6.37;3.30;;;;;;;;;;6097969;23;20006;-55
2021/03/18 14:28:43;;;;;;;12.07;4.30;;;;;;;;;;6097707;23;20006;-55
2021/03/18 14:31:10;;;;;;;7.57;3.83;;;;;;;;;;6101332;23;20005;-55
2021/03/18 14:33:37;;;;;;;9.37;4.70;;;;;;;;;;6097933;23;20018;-55
2021/03/18 14:36:04;;;;;;;8.73;4.57;;;;;;;;;;6097763;23;20426;-55
2021/03/18 14:38:31;;;;;;;10.90;3.80;;;;;;;;;;6097894;23;20032;-55
2021/03/18 14:40:58;;;;;;;9.23;4.20;;;;;;;;;;6097784;23;19999;-55
2021/03/18 14:43:25;;;;;;;12.10;3.97;;;;;;;;;;6097752;23;20013;-55
2021/03/18 14:45:52;;;;;;;9.67;3.50;;;;;;;;;;6097440;23;20003;-55
2021/03/18 14:48:19;;;;;;;9.83;4.07;;;;;;;;;;6097746;23;20006;-55
2021/03/18 14:50:53;;;;;;;9.10;4.07;;;;;;;;;;6097851;23;20006;-55